Time;durP1;ratioP1;P1;durP2;ratioP2;P2;SDS_P1;SDS_P2;PMS_P1;PMS_P2;Temp;Humidity;BMP_temperature;BMP_pressure;BME280_temperature;BME280_humidity;BME280_pressure;Samples;Min_cycle;Max_cycle;Signal;HPM_P1;HPM_P2
2022/06/22 00:01:27;;;;;;;5.13;4.50;;;20.20;99.90;;;;;;5019287;28;20437;-85
2022/06/22 00:03:57;;;;;;;10.90;4.67;;;20.10;99.90;;;;;;5028221;28;20431;-86
2022/06/22 00:06:54;;;;;;;4.80;4.03;;;20.10;99.90;;;;;;5031612;28;20449;-86
2022/06/22 00:09:27;;;;;;;9.20;4.60;;;20.10;99.90;;;;;;5013505;28;20455;-86
2022/06/22 00:11:53;;;;;;;6.60;4.67;;;19.90;99.90;;;;;;5030885;28;20478;-86
2022/06/22 00:14:25;;;;;;;17.13;4.60;;;19.80;99.90;;;;;;5014019;28;20457;-86
2022/06/22 00:16:54;;;;;;;5.60;5.00;;;19.70;99.90;;;;;;5020308;28;20999;-86
2022/06/22 00:19:31;;;;;;;6.97;6.13;;;19.80;99.90;;;;;;5025602;28;20467;-86
2022/06/22 00:21:57;;;;;;;7.90;6.40;;;19.80;99.90;;;;;;5030609;28;20454;-86
2022/06/22 00:24:23;;;;;;;9.67;6.03;;;;;;;;;;5028756;28;20532;-87
2022/06/22 00:26:58;;;;;;;7.53;5.83;;;19.70;99.90;;;;;;5021712;28;20438;-85
2022/06/22 00:29:33;;;;;;;12.37;5.97;;;19.70;99.90;;;;;;5021249;28;20449;-85
2022/06/22 00:32:02;;;;;;;11.47;6.30;;;19.70;99.90;;;;;;5034662;28;20439;-86
2022/06/22 00:34:31;;;;;;;29.67;7.33;;;19.60;99.90;;;;;;5036375;28;20494;-86
2022/06/22 00:37:06;;;;;;;17.47;6.57;;;19.60;99.90;;;;;;5035691;28;20472;-86
2022/06/22 00:39:32;;;;;;;6.50;5.90;;;;;;;;;;5030651;28;20549;-86
2022/06/22 00:42:15;;;;;;;6.53;5.20;;;19.50;99.90;;;;;;5042304;28;20452;-86
2022/06/22 00:44:50;;;;;;;6.00;5.40;;;19.40;99.90;;;;;;5039008;28;20479;-86
2022/06/22 00:47:28;;;;;;;7.83;5.67;;;19.50;99.90;;;;;;5024446;28;20472;-85
2022/06/22 00:49:56;;;;;;;7.60;5.60;;;18.20;99.90;;;;;;5043610;28;20436;-86
2022/06/22 00:52:34;;;;;;;7.60;5.53;;;19.40;99.90;;;;;;5045717;28;20445;-86
2022/06/22 00:55:00;;;;;;;11.17;6.70;;;;;;;;;;5027633;28;20471;-85
2022/06/22 00:57:34;;;;;;;8.00;5.70;;;19.50;99.90;;;;;;5043005;28;20426;-86
2022/06/22 01:00:13;;;;;;;6.90;5.90;;;19.50;99.90;;;;;;5023492;28;20439;-87
2022/06/22 01:03:01;;;;;;;9.83;6.17;;;18.20;99.90;;;;;;5022137;28;20427;-86
2022/06/22 01:05:49;;;;;;;10.17;5.70;;;19.00;99.90;;;;;;5033405;28;20478;-85
2022/06/22 01:08:21;;;;;;;9.63;6.63;;;18.90;99.90;;;;;;5026918;28;22747;-85
2022/06/22 01:10:58;;;;;;;8.40;6.67;;;18.80;99.90;;;;;;5027599;28;20445;-86
2022/06/22 01:13:46;;;;;;;9.83;5.87;;;18.60;99.90;;;;;;5014133;28;20440;-86
2022/06/22 01:16:25;;;;;;;7.17;5.63;;;18.50;99.90;;;;;;5015528;28;20453;-87
2022/06/22 01:19:04;;;;;;;10.20;6.90;;;18.50;99.90;;;;;;5035272;28;20463;-86
2022/06/22 01:21:39;;;;;;;15.17;6.30;;;18.40;99.90;;;;;;5025638;28;20437;-86
2022/06/22 01:24:26;;;;;;;13.30;7.47;;;18.40;99.90;;;;;;5024443;28;20427;-85
2022/06/22 01:27:25;;;;;;;9.10;6.30;;;18.50;99.90;;;;;;5026236;28;20421;-86
2022/06/22 01:29:56;;;;;;;7.80;6.00;;;18.40;99.90;;;;;;5020704;28;20450;-85
2022/06/22 01:32:46;;;;;;;9.33;6.43;;;18.40;99.90;;;;;;5018905;28;20499;-85
2022/06/22 01:35:24;;;;;;;9.33;6.10;;;18.40;99.90;;;;;;5027217;28;20451;-87
2022/06/22 01:37:50;;;;;;;9.70;5.70;;;18.40;99.90;;;;;;5015937;28;20463;-87
2022/06/22 01:40:19;;;;;;;10.40;5.87;;;19.10;99.90;;;;;;5027015;28;20973;-87
2022/06/22 01:43:13;;;;;;;12.60;7.10;;;18.50;99.90;;;;;;5021189;28;20193;-87
2022/06/22 01:46:17;;;;;;;7.93;6.30;;;18.60;99.90;;;;;;5031525;28;20465;-87
2022/06/22 01:48:49;;;;;;;12.90;6.57;;;18.60;99.90;;;;;;5021264;28;20443;-87
2022/06/22 01:51:34;;;;;;;7.47;6.77;;;18.50;99.90;;;;;;5030848;28;20459;-86
2022/06/22 01:54:20;;;;;;;12.00;7.73;;;18.50;99.90;;;;;;5025900;28;20436;-86
2022/06/22 01:56:54;;;;;;;7.67;6.97;;;18.60;99.90;;;;;;5030654;28;20443;-87
2022/06/22 01:59:37;;;;;;;10.50;8.57;;;18.50;99.90;;;;;;5024071;28;20455;-87
2022/06/22 02:02:21;;;;;;;8.00;7.00;;;18.50;99.90;;;;;;5015579;28;20446;-85
2022/06/22 02:04:55;;;;;;;11.70;8.63;;;18.40;99.90;;;;;;5028876;28;20454;-87
2022/06/22 02:07:48;;;;;;;18.20;7.87;;;18.40;99.90;;;;;;5031597;28;20847;-87
2022/06/22 02:10:35;;;;;;;8.27;7.43;;;18.50;99.90;;;;;;5031627;28;20423;-87
2022/06/22 02:13:17;;;;;;;9.47;7.47;;;18.80;99.90;;;;;;5024854;28;20516;-87
2022/06/22 02:15:42;;;;;;;8.00;7.20;;;18.80;99.90;;;;;;5022603;28;20449;-86
2022/06/22 02:18:23;;;;;;;11.37;7.60;;;18.70;99.90;;;;;;5019515;28;20520;-86
2022/06/22 02:20:49;;;;;;;8.43;7.33;;;;;;;;;;5035849;28;20188;-86
2022/06/22 02:23:21;;;;;;;10.70;7.13;;;18.90;99.90;;;;;;5027810;28;20449;-86
2022/06/22 02:26:16;;;;;;;10.90;6.80;;;19.00;99.90;;;;;;5038725;28;20480;-86
2022/06/22 02:28:43;;;;;;;9.57;6.70;;;19.00;99.90;;;;;;5037491;28;20605;-86
2022/06/22 02:31:10;;;;;;;12.50;7.20;;;19.00;99.90;;;;;;5023190;28;20448;-87
2022/06/22 02:33:39;;;;;;;6.57;5.97;;;19.20;99.90;;;;;;5022525;28;20447;-87
2022/06/22 02:36:06;;;;;;;7.00;6.30;;;19.20;99.90;;;;;;5039730;28;20471;-86
2022/06/22 02:38:32;;;;;;;8.50;7.43;;;19.30;99.90;;;;;;5034687;28;20479;-86
2022/06/22 02:46:45;;;;;;;10.03;7.20;;;19.10;99.90;;;;;;4994215;28;21102;-86
2022/06/22 02:49:32;;;;;;;9.20;7.53;;;18.80;99.90;;;;;;5029624;28;20534;-86
2022/06/22 02:52:02;;;;;;;8.30;7.50;;;18.80;99.90;;;;;;5033167;28;20448;-86
2022/06/22 02:54:35;;;;;;;9.33;7.27;;;18.50;99.90;;;;;;5030795;28;20480;-86
2022/06/22 02:57:08;;;;;;;9.70;6.90;;;18.40;99.90;;;;;;5036403;28;20481;-86
2022/06/22 02:59:34;;;;;;;11.33;6.43;;;;;;;;;;5026617;28;20457;-86
2022/06/22 03:02:01;;;;;;;11.33;7.73;;;18.50;99.90;;;;;;5016994;28;20436;-87
2022/06/22 03:04:27;;;;;;;8.13;6.57;;;18.50;99.90;;;;;;5017411;28;20464;-86
2022/06/22 03:06:54;;;;;;;11.40;7.87;;;14.80;99.90;;;;;;5034639;28;20470;-86
2022/06/22 03:09:23;;;;;;;10.23;7.10;;;18.30;99.90;;;;;;5033394;28;20480;-88
2022/06/22 03:11:52;;;;;;;7.33;6.30;;;18.30;99.90;;;;;;5028720;28;20493;-86
2022/06/22 03:14:20;;;;;;;11.60;7.27;;;18.20;99.90;;;;;;5023960;28;20822;-86
2022/06/22 03:16:56;;;;;;;14.63;7.30;;;18.20;99.90;;;;;;5027392;28;20444;-86
2022/06/22 03:19:27;;;;;;;8.80;7.60;;;18.20;99.90;;;;;;5016885;28;21011;-86
2022/06/22 03:21:54;;;;;;;8.70;7.77;;;18.20;99.90;;;;;;5027366;28;20458;-86
2022/06/22 03:24:38;;;;;;;8.67;7.00;;;18.70;99.90;;;;;;5028976;28;20460;-86
2022/06/22 03:27:11;;;;;;;9.40;7.17;;;18.10;99.90;;;;;;5027319;28;20428;-87
2022/06/22 03:29:53;;;;;;;8.47;6.80;;;18.10;99.90;;;;;;5026625;28;20439;-87
2022/06/22 03:32:40;;;;;;;10.40;7.57;;;18.10;99.90;;;;;;5034769;28;20409;-86
2022/06/22 03:35:15;;;;;;;9.70;7.10;;;18.10;99.90;;;;;;5038222;28;20464;-86
2022/06/22 03:37:46;;;;;;;9.90;7.00;;;18.10;99.90;;;;;;5047038;28;20499;-87
2022/06/22 03:40:22;;;;;;;9.33;7.60;;;18.10;99.90;;;;;;5036747;28;20453;-86
2022/06/22 03:42:55;;;;;;;10.13;7.83;;;18.10;99.90;;;;;;5019931;28;20425;-86
2022/06/22 03:45:28;;;;;;;11.03;7.93;;;18.00;99.90;;;;;;5027796;28;20464;-86
2022/06/22 03:48:01;;;;;;;8.53;7.70;;;18.10;99.90;;;;;;5034026;28;20433;-87
2022/06/22 03:50:37;;;;;;;10.57;8.90;;;18.00;99.90;;;;;;5021132;28;20444;-86
2022/06/22 03:53:13;;;;;;;9.03;7.00;;;17.90;99.90;;;;;;5044990;28;20515;-85
2022/06/22 03:55:44;;;;;;;11.73;6.97;;;17.80;99.90;;;;;;5048327;28;20469;-86
2022/06/22 03:58:11;;;;;;;8.57;7.77;;;17.90;99.90;;;;;;5048534;28;20468;-86
2022/06/22 04:00:39;;;;;;;10.17;7.40;;;17.90;99.90;;;;;;5024471;28;20421;-86
2022/06/22 04:03:05;;;;;;;11.60;7.60;;;17.90;99.90;;;;;;5027921;28;20543;-86
2022/06/22 04:05:44;;;;;;;8.00;7.17;;;17.90;99.90;;;;;;5036182;28;20459;-87
2022/06/22 04:08:18;;;;;;;7.80;6.90;;;17.90;99.90;;;;;;5029725;28;20919;-86
2022/06/22 04:10:50;;;;;;;8.67;6.57;;;17.90;99.90;;;;;;5032876;28;20445;-86
2022/06/22 04:13:22;;;;;;;9.77;6.70;;;18.30;99.90;;;;;;5013249;28;21152;-87
2022/06/22 04:15:55;;;;;;;13.57;6.87;;;18.50;99.90;;;;;;5019830;28;20457;-87
2022/06/22 04:18:29;;;;;;;8.97;6.47;;;18.60;99.90;;;;;;5016398;28;20989;-87
2022/06/22 04:21:06;;;;;;;7.67;6.03;;;19.20;99.90;;;;;;5018080;28;20864;-87
2022/06/22 04:23:41;;;;;;;7.10;6.40;;;19.30;99.90;;;;;;5033324;28;21088;-86
2022/06/22 04:26:18;;;;;;;9.03;6.50;;;19.70;99.90;;;;;;5025863;28;20455;-87
2022/06/22 04:28:47;;;;;;;12.00;5.80;;;19.80;99.90;;;;;;5021276;28;20503;-87
2022/06/22 04:31:26;;;;;;;7.23;5.47;;;19.80;99.90;;;;;;5018649;28;20561;-84
2022/06/22 04:34:20;;;;;;;8.07;5.90;;;20.10;99.90;;;;;;5018958;28;20440;-84
2022/06/22 04:36:50;;;;;;;12.33;8.37;;;19.50;99.90;;;;;;5010660;28;20757;-86
2022/06/22 04:39:32;;;;;;;16.00;8.93;;;19.50;99.90;;;;;;5025453;28;22451;-86
2022/06/22 04:42:01;;;;;;;11.67;9.63;;;19.10;99.90;;;;;;5009088;28;20452;-86
2022/06/22 04:44:31;;;;;;;14.27;9.77;;;18.90;99.90;;;;;;5019746;28;20460;-85
2022/06/22 04:47:15;;;;;;;10.00;8.63;;;18.90;99.90;;;;;;5015963;28;20489;-84
2022/06/22 04:49:46;;;;;;;10.70;8.93;;;20.30;99.90;;;;;;5014287;28;20431;-86
2022/06/22 04:52:26;;;;;;;9.97;7.70;;;19.10;99.90;;;;;;5013728;28;20443;-85
2022/06/22 04:54:54;;;;;;;9.20;8.20;;;19.60;99.90;;;;;;5016480;28;20456;-84
2022/06/22 04:57:34;;;;;;;10.63;8.87;;;21.10;99.90;;;;;;5026374;28;20428;-84
2022/06/22 05:00:04;;;;;;;9.23;8.10;;;20.00;99.90;;;;;;5023664;28;20467;-85
2022/06/22 05:02:36;;;;;;;9.43;7.80;;;20.40;99.90;;;;;;5014277;28;20432;-86
2022/06/22 05:05:07;;;;;;;12.37;9.27;;;20.80;99.90;;;;;;5009530;28;22156;-86
2022/06/22 05:07:44;;;;;;;11.67;7.80;;;20.80;99.90;;;;;;5028128;28;21360;-85
2022/06/22 05:10:29;;;;;;;7.40;6.33;;;21.40;99.90;;;;;;5030237;28;20435;-86
2022/06/22 05:12:58;;;;;;;14.20;6.83;;;22.20;99.90;;;;;;5026494;28;20474;-86
2022/06/22 05:15:32;;;;;;;9.40;6.93;;;23.00;99.90;;;;;;5026016;28;20456;-86
2022/06/22 05:18:00;;;;;;;10.37;5.57;;;23.40;99.90;;;;;;5017085;28;20453;-86
2022/06/22 05:20:38;;;;;;;8.77;5.83;;;23.60;99.90;;;;;;5017097;28;20440;-85
2022/06/22 05:23:06;;;;;;;7.87;7.07;;;22.90;99.90;;;;;;5027172;28;20428;-86
2022/06/22 05:25:32;;;;;;;7.87;6.13;;;;;;;;;;5051779;28;20462;-86
2022/06/22 05:28:29;;;;;;;8.37;7.00;;;22.40;99.90;;;;;;5050923;28;20453;-85
2022/06/22 05:31:05;;;;;;;9.47;7.30;;;22.20;99.90;;;;;;5027254;28;20493;-86
2022/06/22 05:33:31;;;;;;;9.30;6.57;;;22.50;99.90;;;;;;5023845;28;20432;-86
2022/06/22 05:36:08;;;;;;;10.80;7.17;;;22.30;99.90;;;;;;5031203;28;20565;-86
2022/06/22 05:38:37;;;;;;;18.07;7.90;;;22.30;99.90;;;;;;5064500;22;20503;-84
2022/06/22 05:41:07;;;;;;;7.80;6.30;;;22.40;99.90;;;;;;5044389;28;20515;-85
2022/06/22 05:43:34;;;;;;;8.20;7.40;;;;;;;;;;5055030;28;20478;-83
2022/06/22 05:46:02;;;;;;;7.80;6.40;;;22.60;99.90;;;;;;5048942;28;20439;-85
2022/06/22 05:48:31;;;;;;;7.40;6.70;;;22.50;99.90;;;;;;5041836;28;20456;-87
2022/06/22 05:51:16;;;;;;;9.57;6.40;;;22.50;99.90;;;;;;5040599;28;20438;-87
2022/06/22 05:53:42;;;;;;;8.63;6.10;;;;;;;;;;5045928;28;20441;-85
2022/06/22 05:56:45;;;;;;;9.43;5.90;;;22.80;99.90;;;;;;5046461;28;20436;-88
2022/06/22 05:59:34;;;;;;;10.77;6.33;;;23.50;99.90;;;;;;5029636;28;20502;-86
2022/06/22 06:02:38;;;;;;;7.10;5.87;;;23.30;99.90;;;;;;5039641;28;20494;-87
2022/06/22 06:05:11;;;;;;;15.07;6.30;;;23.10;99.90;;;;;;5040602;28;20435;-86
2022/06/22 06:07:48;;;;;;;9.30;6.53;;;23.00;99.90;;;;;;5041294;28;20436;-87
2022/06/22 06:10:20;;;;;;;10.53;6.00;;;23.60;99.90;;;;;;5045126;28;20435;-85
2022/06/22 06:12:57;;;;;;;7.53;5.57;;;23.30;99.90;;;;;;5041110;28;20436;-86
2022/06/22 06:15:23;;;;;;;8.10;6.10;;;;;;;;;;5044229;28;20433;-86
2022/06/22 06:17:51;;;;;;;16.20;6.70;;;22.70;99.90;;;;;;5048980;28;20460;-85
2022/06/22 06:20:28;;;;;;;9.30;4.93;;;23.60;99.90;;;;;;5065834;28;20529;-87
2022/06/22 06:22:59;;;;;;;8.33;5.23;;;22.10;99.90;;;;;;5058117;28;20506;-86
2022/06/22 06:28:59;;;;;;;9.37;5.23;;;21.20;99.90;;;;;;5038310;28;20466;-84
2022/06/22 06:31:49;;;;;;;5.67;4.13;;;20.90;99.90;;;;;;5058507;28;20440;-87
2022/06/22 06:34:25;;;;;;;5.63;4.23;;;21.10;99.90;;;;;;5059811;28;20432;-86
2022/06/22 06:37:15;;;;;;;9.40;5.50;;;21.10;99.90;;;;;;5044880;28;20461;-87
2022/06/22 06:39:45;;;;;;;12.47;4.80;;;21.00;99.90;;;;;;5042587;28;21056;-88
2022/06/22 06:42:27;;;;;;;7.33;5.23;;;21.50;99.90;;;;;;5048868;28;20455;-88
2022/06/22 06:44:54;;;;;;;16.60;4.23;;;;;;;;;;5040192;28;20851;-87
2022/06/22 06:47:33;;;;;;;5.20;4.13;;;23.50;99.90;;;;;;5034197;28;20440;-87
2022/06/22 06:49:59;;;;;;;4.53;4.00;;;;;;;;;;5034859;28;20886;-89
2022/06/22 06:52:46;;;;;;;4.33;3.93;;;24.00;99.90;;;;;;5047468;28;20474;-87
2022/06/22 06:55:14;;;;;;;5.43;3.90;;;24.40;99.90;;;;;;5040163;28;20468;-87
2022/06/22 06:58:02;;;;;;;8.43;4.73;;;24.20;99.90;;;;;;5040363;28;20432;-88
2022/06/22 07:00:29;;;;;;;7.20;4.57;;;25.00;99.90;;;;;;5040482;28;20420;-86
2022/06/22 07:02:55;;;;;;;10.10;5.73;;;;;;;;;;5036477;28;20440;-86
2022/06/22 07:05:23;;;;;;;8.83;5.80;;;25.90;99.90;;;;;;5040547;28;20987;-85
2022/06/22 07:08:06;;;;;;;13.13;7.03;;;25.40;99.90;;;;;;5038179;28;20449;-86
2022/06/22 07:10:46;;;;;;;8.73;5.07;;;25.50;99.90;;;;;;5038744;28;20440;-87
2022/06/22 07:13:27;;;;;;;6.27;4.60;;;25.70;99.90;;;;;;5046125;28;20526;-87
2022/06/22 07:15:57;;;;;;;8.77;6.50;;;25.10;99.90;;;;;;5046232;28;21205;-90
2022/06/22 07:18:30;;;;;;;7.30;5.40;;;24.90;99.90;;;;;;5031809;28;20469;-88
2022/06/22 07:21:14;;;;;;;5.30;4.80;;;25.30;99.90;;;;;;5036190;28;21002;-85
2022/06/22 07:23:52;;;;;;;7.00;4.87;;;26.00;99.90;;;;;;5039157;28;20939;-87
2022/06/22 07:26:25;;;;;;;7.20;5.67;;;26.80;99.90;;;;;;5045952;28;20476;-86
2022/06/22 07:29:09;;;;;;;9.23;6.00;;;27.30;99.90;;;;;;5036793;28;20465;-86
2022/06/22 07:31:53;;;;;;;6.37;5.20;;;27.00;99.90;;;;;;5033520;28;20434;-85
2022/06/22 07:34:35;;;;;;;5.80;5.20;;;26.70;99.90;;;;;;5037323;28;20442;-87
2022/06/22 07:37:15;;;;;;;5.30;4.83;;;26.60;99.90;;;;;;5040556;28;20410;-87
2022/06/22 07:39:49;;;;;;;5.30;4.80;;;26.50;99.90;;;;;;5038377;28;20469;-87
2022/06/22 07:42:16;;;;;;;6.40;5.80;;;;;;;;;;5037971;28;20500;-88
2022/06/22 07:44:42;;;;;;;9.80;6.27;;;;;;;;;;5035461;28;20445;-87
2022/06/22 07:47:38;;;;;;;9.00;5.87;;;24.80;99.90;;;;;;5032641;28;20440;-86
2022/06/22 07:50:18;;;;;;;6.70;6.00;;;24.80;99.90;;;;;;5038449;28;20511;-85
2022/06/22 07:53:02;;;;;;;12.50;7.07;;;24.60;99.90;;;;;;5039399;28;20506;-89
2022/06/22 07:55:56;;;;;;;6.20;5.47;;;24.50;99.90;;;;;;5036592;28;20440;-84
2022/06/22 07:58:45;;;;;;;14.40;6.77;;;23.80;99.90;;;;;;5037877;28;20475;-84
2022/06/22 08:01:15;;;;;;;7.33;6.20;;;23.70;99.90;;;;;;5035047;28;20524;-86
2022/06/22 08:03:55;;;;;;;8.03;5.50;;;23.40;99.90;;;;;;5033814;28;20470;-86
2022/06/22 08:06:29;;;;;;;8.80;6.67;;;23.30;99.90;;;;;;5039675;28;20436;-86
2022/06/22 08:09:00;;;;;;;10.53;5.97;;;23.30;99.90;;;;;;5046105;28;20440;-87
2022/06/22 08:11:41;;;;;;;6.60;5.37;;;23.90;99.90;;;;;;5040570;28;20432;-85
2022/06/22 08:14:31;;;;;;;5.87;4.70;;;24.30;99.90;;;;;;5038376;28;20432;-83
2022/06/22 08:17:00;;;;;;;8.70;5.40;;;24.60;99.90;;;;;;5028387;28;20999;-85
2022/06/22 08:19:28;;;;;;;5.37;4.87;;;25.10;99.90;;;;;;5033887;28;20460;-86
2022/06/22 08:21:59;;;;;;;11.10;5.73;;;25.50;99.90;;;;;;5037234;28;20486;-85
2022/06/22 08:24:26;;;;;;;15.77;5.90;;;;;;;;;;5039985;28;20417;-87
2022/06/22 08:26:55;;;;;;;8.03;5.60;;;25.80;99.90;;;;;;5040064;28;20435;-88
2022/06/22 08:29:25;;;;;;;8.30;6.77;;;;;;;;;;5039560;28;20455;-85
2022/06/22 08:32:17;;;;;;;12.20;6.17;;;25.40;99.90;;;;;;5042008;28;20419;-85
2022/06/22 08:34:48;;;;;;;8.13;5.70;;;25.00;99.90;;;;;;5053552;28;20428;-87
2022/06/22 08:37:21;;;;;;;5.97;5.47;;;24.90;99.90;;;;;;5047707;28;20408;-87
2022/06/22 08:39:54;;;;;;;7.10;5.37;;;25.00;99.90;;;;;;5042777;28;20530;-88
2022/06/22 08:43:00;;;;;;;10.87;5.53;;;24.90;99.90;;;;;;5047869;28;20458;-88
2022/06/22 08:45:49;;;;;;;9.00;6.40;;;24.60;99.90;;;;;;5039870;28;20466;-88
2022/06/22 08:48:17;;;;;;;7.60;6.80;;;24.60;99.90;;;;;;5046683;28;20459;-87
2022/06/22 08:51:15;;;;;;;10.37;6.37;;;24.60;99.90;;;;;;5035261;28;20424;-85
2022/06/22 08:53:58;;;;;;;9.07;5.43;;;24.80;99.90;;;;;;5037280;28;20425;-87
2022/06/22 08:56:31;;;;;;;10.40;5.50;;;24.70;99.90;;;;;;5036003;28;20573;-86
2022/06/22 08:59:18;;;;;;;14.60;5.57;;;24.60;99.90;;;;;;5034069;28;20475;-86
2022/06/22 09:02:17;;;;;;;16.73;5.20;;;24.60;99.90;;;;;;5036775;28;20972;-86
2022/06/22 09:04:49;;;;;;;9.10;5.90;;;25.00;99.90;;;;;;5042755;28;20446;-89
2022/06/22 09:07:15;;;;;;;6.27;5.60;;;;;;;;;;5038783;28;20961;-88
2022/06/22 09:10:12;;;;;;;10.97;6.77;;;26.10;99.90;;;;;;5048608;28;20457;-87
2022/06/22 09:12:46;;;;;;;10.37;4.83;;;26.30;99.90;;;;;;5062518;28;20445;-85
2022/06/22 09:15:35;;;;;;;7.93;5.30;;;26.50;99.90;;;;;;5042338;28;20476;-84
2022/06/22 09:18:26;;;;;;;7.57;6.73;;;26.50;99.90;;;;;;5049972;28;21080;-87
2022/06/22 09:21:02;;;;;;;11.00;7.20;;;26.80;99.90;;;;;;5048773;28;20488;-86
2022/06/22 09:23:38;;;;;;;11.00;6.10;;;26.50;99.90;;;;;;5042141;28;20429;-88
2022/06/22 09:26:31;;;;;;;11.60;6.83;;;26.50;99.90;;;;;;5046624;28;20444;-85
2022/06/22 09:29:00;;;;;;;11.00;6.50;;;26.70;99.90;;;;;;5032208;28;20486;-85
2022/06/22 09:31:42;;;;;;;10.50;7.43;;;26.50;99.90;;;;;;5042016;28;20533;-87
2022/06/22 09:34:07;;;;;;;8.53;7.00;;;;;;;;;;5050506;28;20462;-87
2022/06/22 09:37:01;;;;;;;13.60;6.37;;;25.60;99.90;;;;;;5041653;28;20457;-88
2022/06/22 09:39:45;;;;;;;10.30;6.83;;;25.20;99.90;;;;;;5041422;28;20476;-87
2022/06/22 09:42:11;;;;;;;10.83;8.47;;;;;;;;;;5044224;28;20420;-88
2022/06/22 09:44:39;;;;;;;22.80;8.70;;;25.00;99.90;;;;;;5042904;28;20809;-87
2022/06/22 09:47:05;;;;;;;8.97;7.37;;;;;;;;;;5038495;28;20642;-86
2022/06/22 09:49:57;;;;;;;8.00;7.30;;;24.70;99.90;;;;;;5041997;28;20531;-89
2022/06/22 09:52:40;;;;;;;8.83;7.93;;;24.50;99.90;;;;;;5036442;28;20496;-86
2022/06/22 09:58:31;;;;;;;8.30;7.33;;;24.30;99.90;;;;;;5040751;28;20480;-85
2022/06/22 10:01:15;;;;;;;12.53;8.00;;;24.50;99.90;;;;;;5049353;28;20460;-87
2022/06/22 10:04:14;;;;;;;9.97;7.50;;;24.40;99.90;;;;;;5037116;28;20562;-86
2022/06/22 10:06:53;;;;;;;12.70;8.60;;;24.30;99.90;;;;;;5036995;28;20816;-86
2022/06/22 10:09:46;;;;;;;10.33;8.40;;;24.30;99.90;;;;;;5038362;28;21041;-86
2022/06/22 10:12:48;;;;;;;11.73;8.50;;;24.40;99.90;;;;;;5044700;28;20425;-87
2022/06/22 10:15:51;;;;;;;13.30;8.73;;;24.80;99.90;;;;;;5042041;28;20419;-86
2022/06/22 10:18:29;;;;;;;16.27;9.00;;;24.80;99.90;;;;;;5037750;28;20458;-88
2022/06/22 10:21:36;;;;;;;16.17;8.47;;;25.40;99.90;;;;;;5047926;28;20433;-87
2022/06/22 10:24:10;;;;;;;11.63;8.40;;;25.40;99.90;;;;;;5030378;28;20424;-86
2022/06/22 10:27:07;;;;;;;17.00;8.13;;;25.60;99.90;;;;;;5045427;28;20424;-86
2022/06/22 10:29:33;;;;;;;16.43;8.40;;;;;;;;;;5042981;28;20500;-85
2022/06/22 10:32:10;;;;;;;11.37;8.23;;;26.30;99.90;;;;;;5038840;28;20500;-86
2022/06/22 10:34:58;;;;;;;10.90;7.87;;;26.20;99.90;;;;;;5038460;28;20428;-87
2022/06/22 10:37:35;;;;;;;10.20;9.10;;;26.00;99.90;;;;;;5035311;28;20462;-87
2022/06/22 10:46:28;;;;;;;11.40;8.53;;;26.30;99.90;;;;;;5051355;28;20983;-84
2022/06/22 10:48:54;;;;;;;20.40;8.17;;;;;;;;;;5069430;28;20450;-87
2022/06/22 10:51:20;;;;;;;11.33;8.90;;;;;;;;;;5043889;28;20430;-87
2022/06/22 10:54:15;;;;;;;8.50;7.60;;;26.20;99.90;;;;;;5035135;28;20427;-85
2022/06/22 10:56:55;;;;;;;10.00;8.00;;;26.50;99.90;;;;;;5036430;28;20941;-87
2022/06/22 11:00:05;;;;;;;13.40;7.90;;;26.40;99.90;;;;;;5046083;28;21430;-87
2022/06/22 11:03:09;;;;;;;17.17;8.50;;;25.70;99.90;;;;;;5038793;28;20993;-87
2022/06/22 11:05:51;;;;;;;13.17;8.37;;;25.30;99.90;;;;;;5022914;28;21132;-87
2022/06/22 11:08:23;;;;;;;14.37;7.60;;;25.30;99.90;;;;;;5046011;28;20551;-86
2022/06/22 11:11:19;;;;;;;10.33;7.63;;;25.40;99.90;;;;;;5037254;28;20507;-87
2022/06/22 11:14:03;;;;;;;13.40;7.87;;;25.30;99.90;;;;;;5046405;28;20936;-87
2022/06/22 11:16:39;;;;;;;9.43;8.03;;;25.50;99.90;;;;;;5038585;28;20953;-86
2022/06/22 11:19:13;;;;;;;10.40;8.43;;;25.60;99.90;;;;;;5038585;28;20465;-88
2022/06/22 11:22:08;;;;;;;9.53;8.50;;;25.90;99.90;;;;;;5038095;28;20443;-88
2022/06/22 11:24:49;;;;;;;11.50;8.60;;;26.00;99.90;;;;;;5037737;28;20499;-87
2022/06/22 11:33:37;;;;;;;11.30;7.30;;;24.70;99.90;;;;;;5049432;28;20411;-88
2022/06/22 11:36:20;;;;;;;17.87;8.70;;;23.80;99.90;;;;;;5041643;28;20467;-87
2022/06/22 11:38:46;;;;;;;20.10;8.57;;;;;;;;;;5058291;23;20499;-86
2022/06/22 11:41:30;;;;;;;46.00;9.87;;;23.40;99.90;;;;;;5039982;28;20532;-85
2022/06/22 11:44:14;;;;;;;20.87;8.20;;;23.00;99.90;;;;;;5037337;28;20425;-86
2022/06/22 11:46:53;;;;;;;17.30;9.60;;;22.90;99.90;;;;;;5043544;28;20422;-86
2022/06/22 11:49:52;;;;;;;22.47;9.57;;;22.70;99.90;;;;;;5038940;28;20470;-86
2022/06/22 11:52:45;;;;;;;11.57;9.33;;;22.70;99.90;;;;;;5030191;28;20436;-86
2022/06/22 11:55:19;;;;;;;13.43;9.13;;;22.50;99.90;;;;;;5030240;28;20441;-86
2022/06/22 11:58:11;;;;;;;16.90;9.63;;;22.20;99.90;;;;;;5032717;28;20423;-86
2022/06/22 12:01:04;;;;;;;11.60;10.23;;;22.30;99.90;;;;;;5033934;28;20525;-87
2022/06/22 12:03:59;;;;;;;14.80;10.47;;;21.90;99.90;;;;;;5050280;28;20448;-87
2022/06/22 12:06:30;;;;;;;23.73;12.43;;;21.50;99.90;;;;;;5051076;28;20428;-86
2022/06/22 12:09:26;;;;;;;23.73;12.27;;;21.30;99.90;;;;;;5049138;28;20439;-86
2022/06/22 12:12:14;;;;;;;20.00;13.93;;;21.20;99.90;;;;;;5035472;28;20430;-87
2022/06/22 12:15:07;;;;;;;16.60;13.47;;;21.00;99.90;;;;;;5034654;28;20431;-88
2022/06/22 12:17:56;;;;;;;23.10;14.10;;;20.90;99.90;;;;;;5029922;28;20432;-89
2022/06/22 12:20:41;;;;;;;23.00;15.50;;;20.90;99.90;;;;;;5033393;28;20456;-88
2022/06/22 12:23:51;;;;;;;17.50;13.83;;;20.70;99.90;;;;;;5042378;28;20440;-88
2022/06/22 12:26:43;;;;;;;15.10;13.50;;;20.60;99.90;;;;;;4995269;28;20421;-89
2022/06/22 12:29:34;;;;;;;19.80;13.63;;;20.60;99.90;;;;;;5029512;28;20543;-88
2022/06/22 12:32:25;;;;;;;16.80;12.57;;;20.70;99.90;;;;;;5032412;28;20449;-89
2022/06/22 12:35:00;;;;;;;16.70;12.30;;;20.40;99.90;;;;;;5027015;28;20425;-88
2022/06/22 12:37:31;;;;;;;19.70;14.27;;;20.30;99.90;;;;;;5022315;28;21240;-88
2022/06/22 12:40:02;;;;;;;23.03;14.97;;;20.20;99.90;;;;;;5031982;28;20469;-89
2022/06/22 12:42:43;;;;;;;24.70;14.10;;;20.20;99.90;;;;;;5033160;28;20424;-88
2022/06/22 12:45:17;;;;;;;22.60;15.70;;;20.10;99.90;;;;;;5028127;28;20437;-88
2022/06/22 12:47:54;;;;;;;20.50;13.70;;;20.20;99.90;;;;;;5053017;28;20446;-88
2022/06/22 12:50:39;;;;;;;23.47;15.00;;;20.30;99.90;;;;;;5061835;28;20447;-89
2022/06/22 12:53:14;;;;;;;23.10;14.97;;;20.60;99.90;;;;;;5053362;28;20400;-87
2022/06/22 12:55:53;;;;;;;18.67;14.70;;;20.50;99.90;;;;;;5054830;28;20499;-86
2022/06/22 12:58:47;;;;;;;15.53;13.93;;;20.30;99.90;;;;;;5028978;28;20475;-88
2022/06/22 13:01:13;;;;;;;20.90;14.60;;;;;;;;;;5034470;28;20571;-89
2022/06/22 13:03:46;;;;;;;23.83;16.30;;;20.70;99.90;;;;;;5033480;28;20432;-88
2022/06/22 13:06:12;;;;;;;25.97;14.87;;;;;;;;;;5034487;28;20790;-89
2022/06/22 13:08:39;;;;;;;17.57;13.93;;;;;;;;;;5041496;28;20428;-89
2022/06/22 13:11:12;;;;;;;23.37;15.53;;;20.90;99.90;;;;;;5031779;28;20432;-89
2022/06/22 13:13:55;;;;;;;20.67;16.67;;;20.90;99.90;;;;;;5029453;28;20443;-88
2022/06/22 13:16:37;;;;;;;23.50;16.80;;;20.90;99.90;;;;;;5046489;28;20433;-87
2022/06/22 13:19:13;;;;;;;21.50;15.37;;;20.80;99.90;;;;;;5046257;28;20517;-88
2022/06/22 13:21:54;;;;;;;17.93;16.10;;;21.20;99.90;;;;;;5027156;28;20423;-87
2022/06/22 13:24:49;;;;;;;22.83;16.43;;;20.90;99.90;;;;;;5031136;28;20478;-88
2022/06/22 13:27:30;;;;;;;17.60;14.63;;;21.30;99.90;;;;;;5031594;28;20432;-88
2022/06/22 13:30:16;;;;;;;19.57;14.30;;;21.20;99.90;;;;;;5033252;28;20998;-87
2022/06/22 13:32:47;;;;;;;15.40;13.80;;;21.40;99.90;;;;;;5020596;28;20424;-88
2022/06/22 13:35:21;;;;;;;20.17;14.30;;;21.60;99.90;;;;;;5062049;28;20432;-88
2022/06/22 13:38:26;;;;;;;17.43;11.80;;;21.30;99.90;;;;;;5038594;28;20801;-87
2022/06/22 13:41:18;;;;;;;14.73;11.77;;;21.50;99.90;;;;;;5034105;28;20421;-87
2022/06/22 13:44:07;;;;;;;16.60;12.70;;;21.40;99.90;;;;;;5031707;28;20936;-86
2022/06/22 13:46:55;;;;;;;17.67;12.20;;;21.80;99.90;;;;;;5033325;28;20419;-87
2022/06/22 13:49:38;;;;;;;13.37;11.97;;;21.90;99.90;;;;;;5030303;28;20514;-87
2022/06/22 13:52:23;;;;;;;17.13;12.00;;;21.80;99.90;;;;;;5032419;28;20521;-87
2022/06/22 13:55:14;;;;;;;18.40;13.10;;;21.30;99.90;;;;;;5036636;28;20416;-87
2022/06/22 13:58:09;;;;;;;16.87;14.47;;;21.10;99.90;;;;;;5032062;28;20424;-87
2022/06/22 14:01:00;;;;;;;21.93;15.13;;;21.70;99.90;;;;;;5033660;28;20963;-87
2022/06/22 14:03:35;;;;;;;18.00;14.90;;;21.60;99.90;;;;;;5035300;28;20470;-87
2022/06/22 14:06:09;;;;;;;19.03;13.80;;;21.90;99.90;;;;;;5033107;28;20420;-87
2022/06/22 14:09:06;;;;;;;14.50;12.50;;;22.10;99.90;;;;;;5045756;28;20439;-89
2022/06/22 14:11:51;;;;;;;18.40;12.60;;;22.70;99.90;;;;;;5033669;28;20428;-88